createdAt,value
2023-05-03T00:01:01.521Z,5.08
2023-05-03T00:03:28.746Z,5.06
2023-05-03T00:05:55.932Z,5.02
2023-05-03T00:08:23.007Z,4.97
2023-05-03T00:10:50.098Z,4.94
2023-05-03T00:13:17.079Z,4.88
2023-05-03T00:15:44.468Z,4.86
2023-05-03T00:18:11.586Z,4.90
2023-05-03T00:20:38.694Z,4.93
2023-05-03T00:23:05.769Z,4.94
2023-05-03T00:25:32.774Z,4.98
2023-05-03T00:27:59.709Z,5.04
2023-05-03T00:30:26.697Z,5.06
2023-05-03T00:32:53.905Z,5.09
2023-05-03T00:35:21.368Z,5.10
2023-05-03T00:37:48.343Z,5.11
2023-05-03T00:40:18.808Z,5.12
2023-05-03T00:42:47.442Z,5.09
2023-05-03T00:45:14.487Z,5.09
2023-05-03T00:47:41.552Z,5.07
2023-05-03T00:50:09.977Z,5.08
2023-05-03T00:52:37.006Z,5.09
2023-05-03T00:55:04.367Z,5.08
2023-05-03T00:57:31.553Z,5.06
2023-05-03T01:00:02.010Z,5.00
2023-05-03T01:02:34.461Z,4.93
2023-05-03T01:05:02.666Z,4.88
2023-05-03T01:07:49.852Z,4.78
2023-05-03T01:10:55.563Z,4.71
2023-05-03T01:13:28.570Z,4.67
2023-05-03T01:16:17.072Z,4.64
2023-05-03T01:18:44.408Z,4.64
2023-05-03T01:21:11.920Z,4.66
2023-05-03T01:23:59.868Z,4.66
2023-05-03T01:26:27.733Z,4.67
2023-05-03T01:28:55.314Z,4.71
2023-05-03T01:31:44.841Z,4.69
2023-05-03T01:34:17.681Z,4.67
2023-05-03T01:36:45.019Z,4.63
2023-05-03T01:39:52.033Z,4.65
2023-05-03T01:42:19.154Z,4.55
2023-05-03T01:44:47.444Z,4.53
2023-05-03T01:47:15.299Z,4.52
2023-05-03T01:49:42.368Z,4.53
2023-05-03T01:52:09.364Z,4.60
2023-05-03T01:54:37.814Z,4.63
2023-05-03T01:57:05.434Z,4.64
2023-05-03T01:59:32.457Z,4.70
2023-05-03T02:01:59.507Z,4.69
2023-05-03T02:04:26.586Z,4.76
2023-05-03T02:06:53.750Z,4.81
2023-05-03T02:09:20.787Z,4.86
2023-05-03T02:11:47.944Z,4.90
2023-05-03T02:14:15.022Z,4.94
2023-05-03T02:16:42.097Z,4.97
2023-05-03T02:19:09.514Z,5.02
2023-05-03T02:21:37.201Z,5.08
2023-05-03T02:24:04.606Z,5.14
2023-05-03T02:26:31.588Z,5.19
2023-05-03T02:28:58.660Z,5.19
2023-05-03T02:31:27.317Z,5.25
2023-05-03T02:33:56.138Z,5.31
2023-05-03T02:36:23.681Z,5.35
2023-05-03T02:38:51.274Z,5.38
2023-05-03T02:41:18.812Z,5.43
2023-05-03T02:43:46.539Z,5.49
2023-05-03T02:46:13.629Z,5.53
2023-05-03T02:48:40.683Z,5.58
2023-05-03T02:51:07.799Z,5.62
2023-05-03T02:53:35.068Z,5.67
2023-05-03T02:56:03.626Z,5.68
2023-05-03T02:58:31.206Z,5.73
2023-05-03T03:00:59.562Z,5.81
2023-05-03T03:03:29.576Z,5.93
2023-05-03T03:05:56.676Z,6.01
2023-05-03T03:08:24.068Z,6.10
2023-05-03T03:10:51.869Z,6.21
2023-05-03T03:13:19.052Z,6.30
2023-05-03T03:15:46.417Z,6.39
2023-05-03T03:18:13.698Z,6.46
2023-05-03T03:20:40.854Z,6.51
2023-05-03T03:23:08.072Z,6.51
2023-05-03T03:25:35.066Z,6.53
2023-05-03T03:28:02.217Z,6.58
2023-05-03T03:30:30.302Z,6.68
2023-05-03T03:33:06.935Z,6.80
2023-05-03T03:35:39.837Z,6.97
2023-05-03T03:38:07.477Z,7.13
2023-05-03T03:40:38.664Z,7.26
2023-05-03T03:43:06.160Z,7.43
2023-05-03T03:45:33.135Z,7.61
2023-05-03T03:48:00.668Z,7.71
2023-05-03T03:50:28.209Z,7.84
2023-05-03T03:52:55.315Z,7.96
2023-05-03T03:55:23.085Z,8.10
2023-05-03T03:57:53.284Z,8.28
2023-05-03T04:00:21.586Z,8.51
2023-05-03T04:02:56.373Z,8.66
2023-05-03T04:05:23.943Z,8.82
2023-05-03T04:07:50.945Z,8.98
2023-05-03T04:10:19.848Z,9.15
2023-05-03T04:12:47.037Z,9.40
2023-05-03T04:15:15.852Z,9.71
2023-05-03T04:17:45.440Z,10.02
2023-05-03T04:20:13.822Z,10.25
2023-05-03T04:22:46.032Z,10.44
2023-05-03T04:25:17.280Z,10.74
2023-05-03T04:27:51.655Z,11.02
2023-05-03T04:30:20.238Z,11.26
2023-05-03T04:32:54.285Z,11.55
2023-05-03T04:35:23.422Z,11.86
2023-05-03T04:37:50.675Z,12.05
2023-05-03T04:40:21.719Z,12.20
2023-05-03T04:42:57.949Z,12.46
2023-05-03T04:45:25.197Z,12.75
2023-05-03T04:47:52.566Z,12.93
2023-05-03T04:50:19.759Z,12.92
2023-05-03T04:52:50.400Z,12.83
2023-05-03T04:55:18.899Z,12.94
2023-05-03T04:57:45.985Z,12.96
2023-05-03T05:00:14.754Z,13.02
2023-05-03T05:02:46.737Z,12.82
2023-05-03T05:05:14.882Z,12.53
2023-05-03T05:07:42.763Z,12.33
2023-05-03T05:10:12.348Z,12.22
2023-05-03T05:12:39.398Z,12.08
2023-05-03T05:15:08.076Z,11.90
2023-05-03T05:17:35.287Z,11.78
2023-05-03T05:20:07.251Z,11.69
2023-05-03T05:22:34.975Z,11.59
2023-05-03T05:25:02.198Z,11.51
2023-05-03T05:27:30.958Z,11.46
2023-05-03T05:29:59.478Z,11.36
2023-05-03T05:32:27.021Z,11.27
2023-05-03T05:34:55.571Z,11.16
2023-05-03T05:37:25.609Z,11.11
2023-05-03T05:39:53.691Z,11.04
2023-05-03T05:42:23.340Z,11.00
2023-05-03T05:44:52.432Z,10.98
2023-05-03T05:47:21.477Z,10.91
2023-05-03T05:49:50.967Z,10.85
2023-05-03T05:52:18.220Z,10.83
2023-05-03T05:54:45.916Z,10.83
2023-05-03T05:57:13.649Z,10.81
2023-05-03T05:59:41.118Z,10.76
2023-05-03T06:02:11.873Z,10.74
2023-05-03T06:04:38.975Z,10.73
2023-05-03T06:07:06.566Z,10.75
2023-05-03T06:09:33.555Z,10.73
2023-05-03T06:12:03.523Z,10.65
2023-05-03T06:14:32.820Z,10.60
2023-05-03T06:17:00.787Z,10.57
2023-05-03T06:19:28.112Z,10.51
2023-05-03T06:21:55.156Z,10.50
2023-05-03T06:24:22.571Z,10.53
2023-05-03T06:26:53.427Z,10.58
2023-05-03T06:29:20.949Z,10.64
2023-05-03T06:31:48.002Z,10.70
2023-05-03T06:34:20.173Z,10.72
2023-05-03T06:36:47.464Z,10.71
2023-05-03T06:39:14.477Z,10.68
2023-05-03T06:41:41.381Z,10.65
2023-05-03T06:44:08.534Z,10.67
2023-05-03T06:46:35.596Z,10.72
2023-05-03T06:49:03.795Z,10.76
2023-05-03T06:51:33.074Z,10.83
2023-05-03T06:54:02.100Z,10.91
2023-05-03T06:56:29.132Z,10.95
2023-05-03T06:58:56.179Z,10.99
2023-05-03T07:01:23.438Z,11.01
2023-05-03T07:03:50.427Z,11.06
2023-05-03T07:06:18.466Z,11.08
2023-05-03T07:08:45.554Z,11.13
2023-05-03T07:11:12.655Z,11.19
2023-05-03T07:13:39.664Z,11.24
2023-05-03T07:16:07.365Z,11.36
2023-05-03T07:18:34.504Z,11.52
2023-05-03T07:21:01.859Z,11.77
2023-05-03T07:23:28.972Z,11.97
2023-05-03T07:25:55.982Z,12.07
2023-05-03T07:28:23.606Z,12.21
2023-05-03T07:30:51.355Z,12.34
2023-05-03T07:33:18.546Z,12.52
2023-05-03T07:35:49.205Z,12.71
2023-05-03T07:38:16.716Z,12.85
2023-05-03T07:40:43.659Z,13.04
2023-05-03T07:43:10.724Z,13.20
2023-05-03T07:45:38.112Z,13.24
2023-05-03T07:48:09.479Z,13.28
2023-05-03T07:50:36.483Z,13.35
2023-05-03T07:53:03.571Z,13.38
2023-05-03T07:55:33.131Z,13.40
2023-05-03T07:58:00.225Z,13.43
2023-05-03T08:00:27.714Z,13.41
2023-05-03T08:02:54.952Z,13.38
2023-05-03T08:05:22.755Z,13.44
2023-05-03T08:07:50.596Z,13.53
2023-05-03T08:10:18.015Z,13.58
2023-05-03T08:12:47.181Z,13.66
2023-05-03T08:15:14.159Z,13.70
2023-05-03T08:17:42.729Z,13.71
2023-05-03T08:20:10.764Z,13.76
2023-05-03T08:22:38.763Z,13.85
2023-05-03T08:25:06.311Z,13.91
2023-05-03T08:27:33.872Z,13.97
2023-05-03T08:30:01.841Z,14.03
2023-05-03T08:32:32.836Z,14.05
2023-05-03T08:34:59.954Z,14.04
2023-05-03T08:37:27.000Z,13.99
2023-05-03T08:39:54.152Z,13.99
2023-05-03T08:42:21.754Z,14.01
2023-05-03T08:44:49.947Z,14.01
2023-05-03T08:47:17.487Z,13.97
2023-05-03T08:49:44.713Z,13.97
2023-05-03T08:52:12.214Z,13.97
2023-05-03T08:54:39.305Z,13.94
2023-05-03T08:57:18.645Z,13.85
2023-05-03T08:59:54.332Z,13.81
2023-05-03T09:02:21.661Z,13.73
2023-05-03T09:04:48.718Z,13.62
2023-05-03T09:07:20.080Z,13.50
2023-05-03T09:09:47.529Z,13.36
2023-05-03T09:12:34.342Z,13.28
2023-05-03T09:15:01.368Z,13.29
2023-05-03T09:17:31.618Z,13.30
2023-05-03T09:19:59.114Z,13.31
2023-05-03T09:22:32.506Z,13.27
2023-05-03T09:25:00.352Z,13.31
2023-05-03T09:27:27.564Z,13.31
2023-05-03T09:29:54.677Z,13.27
2023-05-03T09:32:23.037Z,13.25
2023-05-03T09:34:50.149Z,13.22
2023-05-03T09:37:17.481Z,13.16
2023-05-03T09:39:46.009Z,13.12
2023-05-03T09:42:18.091Z,13.15
2023-05-03T09:44:49.228Z,13.11
2023-05-03T09:47:16.597Z,13.04
2023-05-03T09:49:43.656Z,13.02
2023-05-03T09:52:11.205Z,13.05
2023-05-03T09:54:38.415Z,12.98
2023-05-03T09:57:06.723Z,12.94
2023-05-03T09:59:34.784Z,12.88
2023-05-03T10:02:03.759Z,12.91
2023-05-03T10:04:38.965Z,12.98
2023-05-03T10:07:08.651Z,13.04
2023-05-03T10:09:44.734Z,13.05
2023-05-03T10:12:13.137Z,13.00
2023-05-03T10:14:41.966Z,12.97
2023-05-03T10:17:14.409Z,12.94
2023-05-03T10:20:01.255Z,12.92
2023-05-03T10:22:28.312Z,12.98
2023-05-03T10:25:01.740Z,12.93
2023-05-03T10:27:45.240Z,12.90
2023-05-03T10:30:31.328Z,12.92
2023-05-03T10:33:19.021Z,12.96
2023-05-03T10:35:52.572Z,12.98
2023-05-03T10:38:24.266Z,13.04
2023-05-03T10:40:51.957Z,13.05
2023-05-03T10:43:31.192Z,13.10
2023-05-03T10:46:06.686Z,13.10
2023-05-03T10:48:34.196Z,13.08
2023-05-03T10:51:30.647Z,13.12
2023-05-03T10:53:57.834Z,13.17
2023-05-03T10:56:24.935Z,13.25
2023-05-03T10:58:56.103Z,13.31
2023-05-03T11:01:24.450Z,13.32
2023-05-03T11:04:06.671Z,13.34
2023-05-03T11:06:38.102Z,13.30
2023-05-03T11:09:07.046Z,13.32
2023-05-03T11:11:39.423Z,13.35
2023-05-03T11:14:08.561Z,13.35
2023-05-03T11:16:36.748Z,13.31
2023-05-03T11:19:04.023Z,13.23
2023-05-03T11:21:31.536Z,13.19
2023-05-03T11:23:59.236Z,13.20
2023-05-03T11:26:26.665Z,13.18
2023-05-03T11:28:54.114Z,13.19
2023-05-03T11:31:21.398Z,13.17
2023-05-03T11:33:49.338Z,13.26
2023-05-03T11:36:16.613Z,13.31
2023-05-03T11:38:43.712Z,13.30
2023-05-03T11:41:15.051Z,13.30
2023-05-03T11:43:52.813Z,13.33
2023-05-03T11:46:26.968Z,13.31
2023-05-03T11:48:54.221Z,13.30
2023-05-03T11:51:24.120Z,13.33
2023-05-03T11:53:51.737Z,13.36
2023-05-03T11:56:20.612Z,13.38
2023-05-03T11:58:54.639Z,13.31
2023-05-03T12:01:22.418Z,13.26
2023-05-03T12:03:53.881Z,13.27
2023-05-03T12:06:22.034Z,13.21
2023-05-03T12:08:50.092Z,13.17
2023-05-03T12:11:18.314Z,13.14
2023-05-03T12:13:47.812Z,13.09
2023-05-03T12:16:19.220Z,13.04
2023-05-03T12:18:57.943Z,13.01
2023-05-03T12:23:57.425Z,12.91
2023-05-03T12:26:25.729Z,12.86
2023-05-03T12:28:56.185Z,12.83
2023-05-03T12:31:24.193Z,12.77
2023-05-03T12:36:24.874Z,12.65
2023-05-03T12:38:56.099Z,12.62
2023-05-03T12:42:04.748Z,12.59
2023-05-03T12:44:16.757Z,12.54
2023-05-03T12:46:45.434Z,12.49
2023-05-03T12:49:15.168Z,12.43
2023-05-03T12:51:43.182Z,12.38
2023-05-03T12:54:12.002Z,12.40
2023-05-03T12:56:40.723Z,12.35
2023-05-03T12:59:39.444Z,12.37
2023-05-03T13:06:59.515Z,12.56
2023-05-03T13:09:37.088Z,12.68
2023-05-03T13:12:14.764Z,12.74
2023-05-03T13:14:43.000Z,12.85
2023-05-03T13:17:10.377Z,12.91
2023-05-03T13:19:37.826Z,13.00
2023-05-03T13:22:05.231Z,13.15
2023-05-03T13:24:32.321Z,13.25
2023-05-03T13:26:59.350Z,13.21
2023-05-03T13:29:26.858Z,13.17
2023-05-03T13:31:54.101Z,13.14
2023-05-03T13:34:21.796Z,13.16
2023-05-03T13:36:49.135Z,13.20
2023-05-03T13:39:16.482Z,13.26
2023-05-03T13:41:43.510Z,13.33
2023-05-03T13:44:11.793Z,13.37
2023-05-03T13:46:39.392Z,13.37
2023-05-03T13:49:07.382Z,13.36
2023-05-03T13:51:35.056Z,13.39
2023-05-03T13:54:03.251Z,13.41
2023-05-03T13:56:30.817Z,13.45
2023-05-03T13:58:58.198Z,13.48
2023-05-03T14:01:25.898Z,13.49
2023-05-03T14:03:53.249Z,13.53
2023-05-03T14:06:20.864Z,13.61
2023-05-03T14:08:48.147Z,13.60
2023-05-03T14:11:19.624Z,13.49
2023-05-03T14:13:56.587Z,13.44
2023-05-03T14:16:39.423Z,13.37
2023-05-03T14:19:08.047Z,13.36
2023-05-03T14:21:35.186Z,13.32
2023-05-03T14:24:02.370Z,13.28
2023-05-03T14:26:29.708Z,13.32
2023-05-03T14:28:57.085Z,13.36
2023-05-03T14:31:24.331Z,13.38
2023-05-03T14:33:51.532Z,13.37
2023-05-03T14:36:18.527Z,13.39
2023-05-03T14:38:45.488Z,13.44
2023-05-03T14:41:12.714Z,13.51
2023-05-03T14:43:39.759Z,13.52
2023-05-03T14:46:08.414Z,13.59
2023-05-03T14:48:35.859Z,13.66
2023-05-03T14:51:03.742Z,13.64
2023-05-03T14:53:31.124Z,13.59
2023-05-03T14:55:58.138Z,13.54
2023-05-03T14:58:25.301Z,13.44
2023-05-03T15:00:52.447Z,13.40
2023-05-03T15:03:19.642Z,13.34
2023-05-03T15:05:50.106Z,13.30
2023-05-03T15:08:19.392Z,13.27
2023-05-03T15:10:46.674Z,13.31
2023-05-03T15:13:14.223Z,13.32
2023-05-03T15:15:46.507Z,13.34
2023-05-03T15:18:14.694Z,13.28
2023-05-03T15:20:41.817Z,13.14
2023-05-03T15:23:09.140Z,13.03
2023-05-03T15:25:36.564Z,13.00
2023-05-03T15:28:04.686Z,12.94
2023-05-03T15:30:33.142Z,12.91
2023-05-03T15:33:01.182Z,12.85
2023-05-03T15:35:28.262Z,12.82
2023-05-03T15:37:55.316Z,12.80
2023-05-03T15:40:25.142Z,12.78
2023-05-03T15:42:53.850Z,12.77
2023-05-03T15:45:23.193Z,12.75
2023-05-03T15:47:50.499Z,12.69
2023-05-03T15:50:19.499Z,12.68
2023-05-03T15:52:46.844Z,12.67
2023-05-03T15:55:13.954Z,12.62
2023-05-03T15:57:41.102Z,12.60
2023-05-03T16:00:15.154Z,12.53
2023-05-03T16:02:42.666Z,12.50
2023-05-03T16:05:10.491Z,12.50
2023-05-03T16:07:37.655Z,12.48
2023-05-03T16:10:05.704Z,12.47
2023-05-03T16:12:32.931Z,12.43
2023-05-03T16:15:00.020Z,12.37
2023-05-03T16:17:27.387Z,12.33
2023-05-03T16:19:54.670Z,12.30
2023-05-03T16:22:21.901Z,12.27
2023-05-03T16:24:49.308Z,12.21
2023-05-03T16:27:16.300Z,12.15
2023-05-03T16:29:43.427Z,12.11
2023-05-03T16:32:11.247Z,12.11
2023-05-03T16:34:38.383Z,12.08
2023-05-03T16:37:05.577Z,12.04
2023-05-03T16:39:32.891Z,12.02
2023-05-03T16:41:59.903Z,12.01
2023-05-03T16:44:27.495Z,12.01
2023-05-03T16:46:54.611Z,11.99
2023-05-03T16:49:21.825Z,11.97
2023-05-03T16:51:48.838Z,11.97
2023-05-03T16:54:17.068Z,11.93
2023-05-03T16:56:44.455Z,11.94
2023-05-03T16:59:11.816Z,11.95
2023-05-03T17:01:39.062Z,11.95
2023-05-03T17:04:06.705Z,11.95
2023-05-03T17:06:33.772Z,11.90
2023-05-03T17:09:00.929Z,11.89
2023-05-03T17:11:27.955Z,11.86
2023-05-03T17:13:55.108Z,11.84
2023-05-03T17:16:22.783Z,11.84
2023-05-03T17:18:49.912Z,11.86
2023-05-03T17:21:16.922Z,11.86
2023-05-03T17:23:44.136Z,11.82
2023-05-03T17:26:12.323Z,11.76
2023-05-03T17:28:39.815Z,11.68
2023-05-03T17:31:07.551Z,11.64
2023-05-03T17:33:34.683Z,11.61
2023-05-03T17:36:04.646Z,11.61
2023-05-03T17:38:32.632Z,11.63
2023-05-03T17:41:07.657Z,11.61
2023-05-03T17:43:35.979Z,11.58
2023-05-03T17:46:10.998Z,11.49
2023-05-03T17:48:40.478Z,11.42
2023-05-03T17:51:07.649Z,11.39
2023-05-03T17:53:34.772Z,11.32
2023-05-03T17:56:01.863Z,11.28
2023-05-03T17:58:28.957Z,11.21
2023-05-03T18:00:57.281Z,11.17
2023-05-03T18:03:25.811Z,11.15
2023-05-03T18:05:53.187Z,11.13
2023-05-03T18:08:20.677Z,11.09
2023-05-03T18:10:48.110Z,11.01
2023-05-03T18:13:15.296Z,10.97
2023-05-03T18:15:42.714Z,10.94
2023-05-03T18:18:09.773Z,10.92
2023-05-03T18:20:36.805Z,10.90
2023-05-03T18:23:03.988Z,10.88
2023-05-03T18:25:31.635Z,10.84
2023-05-03T18:27:58.775Z,10.84
2023-05-03T18:30:28.128Z,10.87
2023-05-03T18:32:55.988Z,10.87
2023-05-03T18:35:23.273Z,10.82
2023-05-03T18:37:53.449Z,10.76
2023-05-03T18:40:20.519Z,10.75
2023-05-03T18:42:47.717Z,10.72
2023-05-03T18:45:15.309Z,10.71
2023-05-03T18:47:42.471Z,10.64
2023-05-03T18:50:09.670Z,10.58
2023-05-03T18:52:37.341Z,10.58
2023-05-03T18:55:04.882Z,10.53
2023-05-03T18:57:32.108Z,10.49
2023-05-03T19:00:08.000Z,10.49
2023-05-03T19:02:36.058Z,10.44
2023-05-03T19:05:03.209Z,10.44
2023-05-03T19:07:33.185Z,10.43
2023-05-03T19:10:01.231Z,10.41
2023-05-03T19:12:28.959Z,10.36
2023-05-03T19:14:56.285Z,10.33
2023-05-03T19:17:23.402Z,10.28
2023-05-03T19:19:51.571Z,10.25
2023-05-03T19:22:18.579Z,10.15
2023-05-03T19:24:45.599Z,10.11
2023-05-03T19:27:12.650Z,10.07
2023-05-03T19:29:39.725Z,10.01
2023-05-03T19:32:06.966Z,9.97
2023-05-03T19:34:37.238Z,9.93
2023-05-03T19:37:05.139Z,9.88
2023-05-03T19:39:35.648Z,9.93
2023-05-03T19:42:03.979Z,9.91
2023-05-03T19:44:31.121Z,9.89
2023-05-03T19:46:58.172Z,9.87
2023-05-03T19:49:25.813Z,9.83
2023-05-03T19:51:56.061Z,9.87
2023-05-03T19:54:23.283Z,9.81
2023-05-03T19:56:50.408Z,9.83
2023-05-03T19:59:18.334Z,9.86
2023-05-03T20:01:45.566Z,9.88
2023-05-03T20:04:12.758Z,9.88
2023-05-03T20:06:39.799Z,9.90
2023-05-03T20:09:06.751Z,9.88
2023-05-03T20:11:33.836Z,9.85
2023-05-03T20:14:00.852Z,9.78
2023-05-03T20:16:32.892Z,9.80
2023-05-03T20:19:00.113Z,9.82
2023-05-03T20:21:27.089Z,9.91
2023-05-03T20:23:54.629Z,9.96
2023-05-03T20:26:22.029Z,9.96
2023-05-03T20:28:49.117Z,9.92
2023-05-03T20:31:16.237Z,9.93
2023-05-03T20:33:43.354Z,9.97
2023-05-03T20:36:12.960Z,10.01
2023-05-03T20:38:39.891Z,9.95
2023-05-03T20:41:07.210Z,9.86
2023-05-03T20:43:34.280Z,9.84
2023-05-03T20:46:01.417Z,9.89
2023-05-03T20:48:28.672Z,9.88
2023-05-03T20:50:58.673Z,9.79
2023-05-03T20:53:25.942Z,9.67
2023-05-03T20:55:56.813Z,9.53
2023-05-03T20:58:23.942Z,9.50
2023-05-03T21:00:56.915Z,9.48
2023-05-03T21:03:25.434Z,9.44
2023-05-03T21:05:53.548Z,9.51
2023-05-03T21:08:20.752Z,9.48
2023-05-03T21:10:47.901Z,9.39
2023-05-03T21:13:15.071Z,9.36
2023-05-03T21:15:45.382Z,9.35
2023-05-03T21:18:12.445Z,9.35
2023-05-03T21:20:39.433Z,9.34
2023-05-03T21:23:06.580Z,9.29
2023-05-03T21:25:33.636Z,9.25
2023-05-03T21:28:00.727Z,9.23
2023-05-03T21:30:27.945Z,9.28
2023-05-03T21:32:55.036Z,9.27
2023-05-03T21:35:22.176Z,9.22
2023-05-03T21:37:49.991Z,9.15
2023-05-03T21:40:17.227Z,9.07
2023-05-03T21:42:44.323Z,9.04
2023-05-03T21:45:11.981Z,9.00
2023-05-03T21:47:38.994Z,9.05
2023-05-03T21:50:06.690Z,9.04
2023-05-03T21:52:34.187Z,8.96
2023-05-03T21:55:01.347Z,8.95
2023-05-03T21:57:33.018Z,8.92
2023-05-03T22:00:00.280Z,8.92
2023-05-03T22:02:27.576Z,8.98
2023-05-03T22:04:54.775Z,9.02
2023-05-03T22:07:21.863Z,8.96
2023-05-03T22:09:48.975Z,8.95
2023-05-03T22:14:46.241Z,9.02
2023-05-03T22:17:13.703Z,8.99
2023-05-03T22:19:40.770Z,8.96
2023-05-03T22:22:07.736Z,8.89
2023-05-03T22:24:34.764Z,8.85
2023-05-03T22:27:02.188Z,8.82
2023-05-03T22:29:29.242Z,8.81
2023-05-03T22:31:56.662Z,8.78
2023-05-03T22:34:23.755Z,8.69
2023-05-03T22:36:50.853Z,8.62
2023-05-03T22:39:17.791Z,8.58
2023-05-03T22:41:44.876Z,8.54
2023-05-03T22:44:11.905Z,8.47
2023-05-03T22:46:38.986Z,8.41
2023-05-03T22:49:05.972Z,8.28
2023-05-03T22:51:33.373Z,8.18
2023-05-03T22:54:00.646Z,8.12
2023-05-03T22:56:27.787Z,8.07
2023-05-03T22:58:54.721Z,8.05
2023-05-03T23:01:21.856Z,7.99
2023-05-03T23:03:48.965Z,8.02
2023-05-03T23:06:16.027Z,8.05
2023-05-03T23:08:43.303Z,8.05
2023-05-03T23:11:10.715Z,8.03
2023-05-03T23:13:37.948Z,7.98
2023-05-03T23:16:05.620Z,7.95
2023-05-03T23:18:32.589Z,7.92
2023-05-03T23:20:59.977Z,7.89
2023-05-03T23:23:26.987Z,7.92
2023-05-03T23:25:53.983Z,7.96
2023-05-03T23:28:21.432Z,7.91
2023-05-03T23:30:49.027Z,7.86
2023-05-03T23:33:16.500Z,7.81
2023-05-03T23:35:43.803Z,7.75
2023-05-03T23:38:10.902Z,7.65
2023-05-03T23:40:38.066Z,7.67
2023-05-03T23:43:05.316Z,7.68
2023-05-03T23:45:32.273Z,7.67
2023-05-03T23:47:59.318Z,7.70
2023-05-03T23:50:26.747Z,7.71
2023-05-03T23:52:53.835Z,7.73
2023-05-03T23:55:20.853Z,7.76
2023-05-03T23:57:47.935Z,7.79
